Time;durP1;ratioP1;P1;durP2;ratioP2;P2;SDS_P1;SDS_P2;PMS_P1;PMS_P2;Temp;Humidity;BMP_temperature;BMP_pressure;BME280_temperature;BME280_humidity;BME280_pressure;Samples;Min_cycle;Max_cycle;Signal;HPM_P1;HPM_P2
2023/04/19 00:00:50;;;;;;;8.43;5.32;;;;;;;;;;5022086;28;20144;-69
2023/04/19 00:03:16;;;;;;;8.18;5.35;;;;;;;;;;5021899;28;20672;-68
2023/04/19 00:05:42;;;;;;;8.20;5.88;;;;;;;;;;5023562;28;20048;-69
2023/04/19 00:08:07;;;;;;;9.48;5.78;;;;;;;;;;5023392;28;20152;-69
2023/04/19 00:10:34;;;;;;;9.18;6.22;;;;;;;;;;5021921;28;20672;-71
2023/04/19 00:13:00;;;;;;;10.55;6.35;;;;;;;;;;5023178;28;20518;-69
2023/04/19 00:15:26;;;;;;;9.57;6.75;;;;;;;;;;5023209;28;20059;-69
2023/04/19 00:17:51;;;;;;;8.27;6.30;;;;;;;;;;5023017;28;20046;-69
2023/04/19 00:20:16;;;;;;;10.15;6.93;;;;;;;;;;5022321;28;20049;-71
2023/04/19 00:22:42;;;;;;;10.02;7.40;;;;;;;;;;5022437;28;20049;-69
2023/04/19 00:25:07;;;;;;;10.50;7.80;;;;;;;;;;5021936;28;20108;-69
2023/04/19 00:27:33;;;;;;;8.45;6.40;;;;;;;;;;5021359;28;20781;-69
2023/04/19 00:29:58;;;;;;;9.82;7.18;;;;;;;;;;5022755;28;20099;-69
2023/04/19 00:32:24;;;;;;;10.82;7.05;;;;;;;;;;5019992;28;20577;-69
2023/04/19 00:34:49;;;;;;;11.15;7.03;;;;;;;;;;5021470;28;20115;-69
2023/04/19 00:37:15;;;;;;;13.48;7.32;;;;;;;;;;5021347;28;20140;-69
2023/04/19 00:39:40;;;;;;;9.55;7.13;;;;;;;;;;5004941;28;20387;-69
2023/04/19 00:42:06;;;;;;;11.57;7.28;;;;;;;;;;5021764;28;20053;-69
2023/04/19 00:44:31;;;;;;;11.27;7.28;;;;;;;;;;5021563;28;20064;-69
2023/04/19 00:46:57;;;;;;;10.40;7.53;;;;;;;;;;5021415;28;20057;-69
2023/04/19 00:49:23;;;;;;;13.15;7.38;;;;;;;;;;5021183;28;20057;-69
2023/04/19 00:51:52;;;;;;;11.50;7.90;;;;;;;;;;5021319;28;20033;-69
2023/04/19 00:54:18;;;;;;;11.60;7.20;;;;;;;;;;5021487;28;20439;-69
2023/04/19 00:56:44;;;;;;;11.60;7.72;;;;;;;;;;5025398;28;20037;-69
2023/04/19 00:59:11;;;;;;;11.20;7.43;;;;;;;;;;5041199;28;20064;-69
2023/04/19 01:01:37;;;;;;;10.18;7.32;;;;;;;;;;5040493;28;20059;-70
2023/04/19 01:04:04;;;;;;;9.95;7.82;;;;;;;;;;5039804;28;20071;-69
2023/04/19 01:06:30;;;;;;;11.77;7.80;;;;;;;;;;5038653;28;20185;-69
2023/04/19 01:08:55;;;;;;;10.45;7.10;;;;;;;;;;5022082;28;20075;-69
2023/04/19 01:11:24;;;;;;;11.38;8.00;;;;;;;;;;5017345;28;20050;-69
2023/04/19 01:13:50;;;;;;;11.20;7.68;;;;;;;;;;5018236;28;20543;-69
2023/04/19 01:16:16;;;;;;;11.45;8.38;;;;;;;;;;5009850;28;20053;-69
2023/04/19 01:18:42;;;;;;;11.57;8.48;;;;;;;;;;5020297;28;20053;-69
2023/04/19 01:21:08;;;;;;;12.75;8.52;;;;;;;;;;5018088;28;20140;-69
2023/04/19 01:23:34;;;;;;;11.20;7.97;;;;;;;;;;5020232;28;20059;-69
2023/04/19 01:26:00;;;;;;;12.23;8.13;;;;;;;;;;5018896;28;20045;-69
2023/04/19 01:28:26;;;;;;;14.48;9.60;;;;;;;;;;5020344;28;20125;-69
2023/04/19 01:30:53;;;;;;;13.30;8.68;;;;;;;;;;5016911;28;20105;-69
2023/04/19 01:33:22;;;;;;;14.85;10.18;;;;;;;;;;5019743;28;20045;-69
2023/04/19 01:35:48;;;;;;;14.63;10.38;;;;;;;;;;5003697;28;20103;-69
2023/04/19 01:38:15;;;;;;;14.43;9.50;;;;;;;;;;5019709;28;20037;-69
2023/04/19 01:40:40;;;;;;;13.85;9.82;;;;;;;;;;5020838;28;20061;-69
2023/04/19 01:43:06;;;;;;;15.60;11.00;;;;;;;;;;5020359;28;20391;-69
2023/04/19 01:45:33;;;;;;;16.35;9.75;;;;;;;;;;5021223;28;20044;-69
2023/04/19 01:48:03;;;;;;;16.88;10.30;;;;;;;;;;5020071;28;20045;-69
2023/04/19 01:50:29;;;;;;;17.42;10.55;;;;;;;;;;5019898;28;20069;-69
2023/04/19 01:52:55;;;;;;;18.73;10.63;;;;;;;;;;5019907;28;20517;-70
2023/04/19 01:55:20;;;;;;;18.30;11.57;;;;;;;;;;5021217;28;20045;-69
2023/04/19 01:57:46;;;;;;;18.50;11.20;;;;;;;;;;5020531;28;20452;-69
2023/04/19 02:00:11;;;;;;;17.88;11.18;;;;;;;;;;5018692;28;20049;-70
2023/04/19 02:02:40;;;;;;;19.00;11.27;;;;;;;;;;5020474;28;20060;-69
2023/04/19 02:05:07;;;;;;;21.10;11.05;;;;;;;;;;5019918;28;20045;-69
2023/04/19 02:07:33;;;;;;;18.38;10.93;;;;;;;;;;5019644;28;20045;-69
2023/04/19 02:09:59;;;;;;;17.77;10.88;;;;;;;;;;5020918;28;20060;-70
2023/04/19 02:12:28;;;;;;;14.10;9.88;;;;;;;;;;5018003;28;20037;-69
2023/04/19 02:14:56;;;;;;;16.02;10.77;;;;;;;;;;5019430;28;20096;-70
2023/04/19 02:17:29;;;;;;;17.40;11.60;;;;;;;;;;5020469;28;20045;-70
2023/04/19 02:19:55;;;;;;;19.27;10.88;;;;;;;;;;5019713;28;20049;-69
2023/04/19 02:22:21;;;;;;;16.40;10.93;;;;;;;;;;5017454;28;20053;-70
2023/04/19 02:24:50;;;;;;;17.60;10.82;;;;;;;;;;5019541;28;20045;-70
2023/04/19 02:27:16;;;;;;;16.42;10.48;;;;;;;;;;5020847;28;20049;-70
2023/04/19 02:29:41;;;;;;;16.95;10.68;;;;;;;;;;5019110;28;20376;-69
2023/04/19 02:32:06;;;;;;;18.25;10.40;;;;;;;;;;5019193;28;20045;-69
2023/04/19 02:34:33;;;;;;;20.77;11.52;;;;;;;;;;5017698;28;20041;-70
2023/04/19 02:36:58;;;;;;;18.08;11.43;;;;;;;;;;5019273;28;20049;-69
2023/04/19 02:39:27;;;;;;;17.95;11.75;;;;;;;;;;5019009;28;20536;-70
2023/04/19 02:41:52;;;;;;;19.25;11.43;;;;;;;;;;5020328;28;20084;-70
2023/04/19 02:44:18;;;;;;;18.88;11.25;;;;;;;;;;5018158;28;20132;-69
2023/04/19 02:46:53;;;;;;;17.33;11.77;;;;;;;;;;5019965;28;20112;-69
2023/04/19 02:49:19;;;;;;;17.75;11.70;;;;;;;;;;5020317;28;20049;-69
2023/04/19 02:51:45;;;;;;;15.82;11.18;;;;;;;;;;5020328;28;20044;-69
2023/04/19 02:54:12;;;;;;;19.13;11.77;;;;;;;;;;5017989;28;20069;-70
2023/04/19 02:56:39;;;;;;;16.75;11.65;;;;;;;;;;5018304;28;20502;-70
2023/04/19 02:59:05;;;;;;;17.85;12.38;;;;;;;;;;5018702;28;20048;-69
2023/04/19 03:01:31;;;;;;;19.38;11.57;;;;;;;;;;5018665;28;20091;-69
2023/04/19 03:03:58;;;;;;;19.30;12.20;;;;;;;;;;5002751;28;20065;-69
2023/04/19 03:06:25;;;;;;;19.38;13.18;;;;;;;;;;5017317;28;20087;-70
2023/04/19 03:08:50;;;;;;;22.42;13.48;;;;;;;;;;5020402;28;20084;-69
2023/04/19 03:11:17;;;;;;;20.10;13.05;;;;;;;;;;5018616;28;20046;-69
2023/04/19 03:13:43;;;;;;;19.75;13.00;;;;;;;;;;5020362;28;20397;-69
2023/04/19 03:16:08;;;;;;;20.55;12.93;;;;;;;;;;5018439;28;20476;-69
2023/04/19 03:18:35;;;;;;;22.73;13.15;;;;;;;;;;5025895;28;20042;-69
2023/04/19 03:21:03;;;;;;;21.38;13.38;;;;;;;;;;5002587;28;20111;-70
2023/04/19 03:23:34;;;;;;;19.08;12.80;;;;;;;;;;5018651;28;20041;-70
2023/04/19 03:26:00;;;;;;;20.70;14.00;;;;;;;;;;5035054;28;20052;-69
2023/04/19 03:28:55;;;;;;;19.42;13.05;;;;;;;;;;5008024;28;20506;-70
2023/04/19 03:31:37;;;;;;;24.17;14.48;;;;;;;;;;5020706;28;20076;-69
2023/04/19 03:34:03;;;;;;;22.35;13.52;;;;;;;;;;5038195;28;20083;-70
2023/04/19 03:36:36;;;;;;;24.83;14.65;;;;;;;;;;5037796;28;20068;-70
2023/04/19 03:39:02;;;;;;;23.40;14.63;;;;;;;;;;5038974;28;20085;-70
2023/04/19 03:41:28;;;;;;;22.70;13.35;;;;;;;;;;5036258;28;20075;-70
2023/04/19 03:44:22;;;;;;;23.52;14.95;;;;;;;;;;5030035;28;20056;-70
2023/04/19 03:46:48;;;;;;;24.05;15.65;;;;;;;;;;5037848;28;20049;-69
2023/04/19 03:49:16;;;;;;;23.63;14.80;;;;;;;;;;5037542;28;20588;-70
2023/04/19 03:51:45;;;;;;;22.23;15.10;;;;;;;;;;5037793;28;20048;-70
2023/04/19 03:54:11;;;;;;;23.33;15.05;;;;;;;;;;5037632;28;20037;-70
2023/04/19 03:56:36;;;;;;;22.55;14.88;;;;;;;;;;5037720;28;20036;-70
2023/04/19 03:59:02;;;;;;;24.55;14.88;;;;;;;;;;5039429;28;20743;-70
2023/04/19 04:01:30;;;;;;;28.10;15.45;;;;;;;;;;5038196;28;20045;-70
2023/04/19 04:03:55;;;;;;;24.23;14.82;;;;;;;;;;5057428;28;20398;-70
2023/04/19 04:06:21;;;;;;;25.42;14.65;;;;;;;;;;5040701;28;20041;-70
2023/04/19 04:08:47;;;;;;;24.08;15.65;;;;;;;;;;5042175;28;20041;-70
2023/04/19 04:11:12;;;;;;;24.73;15.85;;;;;;;;;;5040956;28;20044;-70
2023/04/19 04:13:38;;;;;;;25.45;16.17;;;;;;;;;;5041226;28;20762;-70
2023/04/19 04:16:09;;;;;;;24.30;16.10;;;;;;;;;;5025479;28;20533;-70
2023/04/19 04:18:35;;;;;;;26.25;16.33;;;;;;;;;;5024097;28;20072;-70
2023/04/19 04:21:04;;;;;;;27.95;16.63;;;;;;;;;;5040972;28;20554;-70
2023/04/19 04:23:32;;;;;;;25.17;16.35;;;;;;;;;;5038824;28;20056;-70
2023/04/19 04:26:03;;;;;;;25.60;16.52;;;;;;;;;;5039755;28;20064;-69
2023/04/19 04:28:43;;;;;;;25.23;17.27;;;;;;;;;;5039724;28;20049;-70
2023/04/19 04:31:11;;;;;;;25.90;16.15;;;;;;;;;;5039747;28;20033;-70
2023/04/19 04:33:37;;;;;;;28.83;17.10;;;;;;;;;;5038190;28;20049;-70
2023/04/19 04:36:04;;;;;;;25.55;16.48;;;;;;;;;;5038787;28;20047;-70
2023/04/19 04:38:32;;;;;;;27.05;15.85;;;;;;;;;;5038729;28;20102;-70
2023/04/19 04:40:58;;;;;;;25.65;16.88;;;;;;;;;;5038071;28;20052;-69
2023/04/19 04:43:24;;;;;;;27.10;16.35;;;;;;;;;;5038131;28;20049;-69
2023/04/19 04:45:50;;;;;;;26.00;16.83;;;;;;;;;;5040137;28;20498;-69
2023/04/19 04:48:16;;;;;;;30.98;18.55;;;;;;;;;;5037901;28;20131;-69
2023/04/19 04:50:43;;;;;;;25.65;16.42;;;;;;;;;;5040642;28;20037;-69
2023/04/19 04:53:08;;;;;;;26.92;16.70;;;;;;;;;;5039278;28;20045;-69
2023/04/19 04:55:35;;;;;;;24.08;16.88;;;;;;;;;;5038414;28;20056;-69
2023/04/19 04:58:01;;;;;;;28.40;18.27;;;;;;;;;;5041930;28;20041;-69
2023/04/19 05:00:35;;;;;;;31.17;17.60;;;;;;;;;;5025044;28;20215;-69
2023/04/19 05:03:04;;;;;;;28.13;17.00;;;;;;;;;;5038596;28;20044;-69
2023/04/19 05:05:34;;;;;;;31.10;17.13;;;;;;;;;;5039374;28;20654;-69
2023/04/19 05:08:00;;;;;;;29.10;17.65;;;;;;;;;;5038613;28;20078;-69
2023/04/19 05:10:25;;;;;;;28.70;16.98;;;;;;;;;;5041147;28;20494;-69
2023/04/19 05:12:52;;;;;;;28.45;18.23;;;;;;;;;;5038971;28;20152;-68
2023/04/19 05:15:17;;;;;;;27.63;17.33;;;;;;;;;;5037908;28;20143;-69
2023/04/19 05:17:48;;;;;;;30.30;17.53;;;;;;;;;;5037382;28;20054;-69
2023/04/19 05:20:14;;;;;;;22.80;16.75;;;;;;;;;;5038121;28;20326;-69
2023/04/19 05:22:40;;;;;;;26.55;17.15;;;;;;;;;;5038180;28;20111;-69
2023/04/19 05:25:09;;;;;;;27.75;16.90;;;;;;;;;;5038372;28;20528;-69
2023/04/19 05:27:34;;;;;;;28.90;17.75;;;;;;;;;;5038163;28;20085;-69
2023/04/19 05:30:00;;;;;;;26.63;17.02;;;;;;;;;;5037683;28;20123;-69
2023/04/19 05:32:28;;;;;;;24.05;16.50;;;;;;;;;;5037004;28;20204;-69
2023/04/19 05:34:57;;;;;;;27.48;17.85;;;;;;;;;;5038487;28;20048;-70
2023/04/19 05:37:23;;;;;;;27.27;17.48;;;;;;;;;;5021912;28;20056;-69
2023/04/19 05:39:49;;;;;;;27.17;16.67;;;;;;;;;;5006199;28;20041;-69
2023/04/19 05:42:14;;;;;;;26.20;17.08;;;;;;;;;;5021012;28;20067;-70
2023/04/19 05:44:40;;;;;;;27.23;17.08;;;;;;;;;;5039414;28;20052;-70
2023/04/19 05:47:05;;;;;;;25.77;16.55;;;;;;;;;;5039565;28;20079;-70
2023/04/19 05:49:59;;;;;;;28.17;17.17;;;;;;;;;;5040120;28;20037;-69
2023/04/19 05:52:29;;;;;;;25.13;16.45;;;;;;;;;;5038077;28;20052;-69
2023/04/19 05:54:57;;;;;;;25.67;17.02;;;;;;;;;;5039883;28;20041;-71
2023/04/19 05:57:23;;;;;;;29.90;17.63;;;;;;;;;;5039719;28;20053;-70
2023/04/19 05:59:48;;;;;;;25.77;16.85;;;;;;;;;;5040053;28;20051;-69
2023/04/19 06:02:18;;;;;;;29.38;18.73;;;;;;;;;;5038430;28;20047;-69
2023/04/19 06:04:43;;;;;;;25.23;17.63;;;;;;;;;;5038999;28;20048;-70
2023/04/19 06:07:10;;;;;;;31.70;17.02;;;;;;;;;;5039789;28;20044;-70
2023/04/19 06:09:38;;;;;;;26.45;17.55;;;;;;;;;;5039683;28;20066;-70
2023/04/19 06:12:05;;;;;;;25.42;17.23;;;;;;;;;;5039251;28;20052;-70
2023/04/19 06:14:31;;;;;;;29.13;17.25;;;;;;;;;;5037759;28;20045;-69
2023/04/19 06:16:57;;;;;;;29.90;18.52;;;;;;;;;;5022566;28;20045;-69
2023/04/19 06:19:22;;;;;;;27.85;17.30;;;;;;;;;;5041162;28;20059;-70
2023/04/19 06:21:48;;;;;;;29.25;17.52;;;;;;;;;;5040607;28;20060;-70
2023/04/19 06:24:13;;;;;;;30.00;17.52;;;;;;;;;;5039508;28;20043;-70
2023/04/19 06:26:39;;;;;;;25.75;17.27;;;;;;;;;;5040014;28;20052;-70
2023/04/19 06:29:05;;;;;;;28.40;17.70;;;;;;;;;;5040818;28;20070;-70
2023/04/19 06:31:31;;;;;;;32.10;17.13;;;;;;;;;;5038637;28;20045;-70
2023/04/19 06:33:56;;;;;;;32.55;17.98;;;;;;;;;;5040766;28;20033;-70
2023/04/19 06:36:22;;;;;;;27.40;16.83;;;;;;;;;;5038868;28;20063;-70
2023/04/19 06:38:48;;;;;;;29.80;18.10;;;;;;;;;;5040768;28;20041;-69
2023/04/19 06:41:14;;;;;;;28.52;17.73;;;;;;;;;;5040462;28;20103;-69
2023/04/19 06:43:41;;;;;;;27.75;17.60;;;;;;;;;;5040169;28;20052;-69
2023/04/19 06:46:07;;;;;;;29.95;18.55;;;;;;;;;;5039316;28;20128;-69
2023/04/19 06:48:33;;;;;;;29.05;17.95;;;;;;;;;;5039613;28;20152;-69
2023/04/19 06:50:58;;;;;;;30.05;18.10;;;;;;;;;;5040505;28;20098;-72
2023/04/19 06:53:26;;;;;;;30.50;18.58;;;;;;;;;;5040050;28;20037;-70
2023/04/19 06:56:03;;;;;;;34.60;18.45;;;;;;;;;;5040150;28;20044;-70
2023/04/19 06:58:28;;;;;;;31.05;17.73;;;;;;;;;;5039020;28;20056;-69
2023/04/19 07:00:54;;;;;;;31.30;18.10;;;;;;;;;;5040156;28;20049;-69
2023/04/19 07:03:20;;;;;;;26.58;16.90;;;;;;;;;;5040028;28;20109;-70
2023/04/19 07:05:46;;;;;;;29.70;17.85;;;;;;;;;;5038891;28;20120;-70
2023/04/19 07:08:11;;;;;;;26.27;16.50;;;;;;;;;;5039260;28;20127;-70
2023/04/19 07:10:36;;;;;;;25.83;16.27;;;;;;;;;;5039475;28;20550;-70
2023/04/19 07:13:02;;;;;;;27.27;16.40;;;;;;;;;;5039782;28;20159;-70
2023/04/19 07:15:27;;;;;;;27.30;18.15;;;;;;;;;;5039894;28;20083;-69
2023/04/19 07:17:52;;;;;;;27.05;17.25;;;;;;;;;;5039806;28;20045;-70
2023/04/19 07:20:20;;;;;;;27.33;18.52;;;;;;;;;;5039312;28;20044;-69
2023/04/19 07:22:46;;;;;;;27.65;16.70;;;;;;;;;;5035047;28;20124;-70
2023/04/19 07:25:13;;;;;;;25.75;17.08;;;;;;;;;;5020078;28;20128;-69
2023/04/19 07:27:39;;;;;;;29.10;16.85;;;;;;;;;;5020069;28;20136;-69
2023/04/19 07:30:05;;;;;;;27.60;15.93;;;;;;;;;;5018929;28;20124;-70
2023/04/19 07:32:31;;;;;;;24.88;16.88;;;;;;;;;;5019587;28;20045;-69
2023/04/19 07:34:56;;;;;;;26.52;17.40;;;;;;;;;;5021451;28;20041;-69
2023/04/19 07:37:22;;;;;;;23.75;16.05;;;;;;;;;;5024084;28;20065;-69
2023/04/19 07:39:47;;;;;;;24.83;16.40;;;;;;;;;;5024036;28;20044;-69
2023/04/19 07:42:12;;;;;;;29.13;16.83;;;;;;;;;;5022914;28;20490;-70
2023/04/19 07:44:38;;;;;;;23.55;16.30;;;;;;;;;;5023013;28;20038;-69
2023/04/19 07:47:05;;;;;;;26.13;16.77;;;;;;;;;;5023851;28;20164;-69
2023/04/19 07:49:32;;;;;;;30.40;17.25;;;;;;;;;;5023915;28;20061;-69
2023/04/19 07:52:01;;;;;;;30.08;17.83;;;;;;;;;;5022789;28;20045;-69
2023/04/19 07:54:28;;;;;;;27.02;18.08;;;;;;;;;;5022848;28;20478;-69
2023/04/19 07:56:53;;;;;;;31.33;17.33;;;;;;;;;;5023768;28;20136;-69
2023/04/19 07:59:19;;;;;;;27.10;16.23;;;;;;;;;;5023585;28;20144;-69
2023/04/19 08:01:44;;;;;;;29.20;18.55;;;;;;;;;;5023511;28;20037;-69
2023/04/19 08:04:09;;;;;;;28.05;16.98;;;;;;;;;;5022915;28;20128;-71
2023/04/19 08:06:38;;;;;;;26.25;16.52;;;;;;;;;;5023343;28;20445;-67
2023/04/19 08:09:03;;;;;;;26.38;17.42;;;;;;;;;;5023888;28;20053;-68
2023/04/19 08:11:28;;;;;;;25.85;16.52;;;;;;;;;;5023101;28;20057;-73
2023/04/19 08:13:54;;;;;;;28.92;16.67;;;;;;;;;;5021785;28;20045;-69
2023/04/19 08:16:19;;;;;;;28.42;17.63;;;;;;;;;;5022821;28;20148;-71
2023/04/19 08:18:45;;;;;;;27.65;16.35;;;;;;;;;;5032030;28;20390;-67
2023/04/19 08:21:10;;;;;;;26.63;16.20;;;;;;;;;;5029875;28;20164;-68
2023/04/19 08:23:36;;;;;;;25.55;15.68;;;;;;;;;;5017183;28;20054;-69
2023/04/19 08:26:01;;;;;;;25.85;16.08;;;;;;;;;;5033184;28;20447;-68
2023/04/19 08:28:27;;;;;;;31.75;17.10;;;;;;;;;;5017880;28;20046;-69
2023/04/19 08:30:53;;;;;;;24.67;15.65;;;;;;;;;;5015633;28;20065;-71
2023/04/19 08:33:22;;;;;;;23.73;15.13;;;;;;;;;;5017094;28;20042;-68
2023/04/19 08:35:48;;;;;;;24.00;13.75;;;;;;;;;;5022896;28;20402;-72
2023/04/19 08:38:13;;;;;;;24.38;15.32;;;;;;;;;;5022551;28;20119;-68
2023/04/19 08:40:45;;;;;;;24.17;15.95;;;;;;;;;;5023109;28;20053;-71
2023/04/19 08:43:11;;;;;;;21.80;14.40;;;;;;;;;;5023559;28;20061;-72
2023/04/19 08:45:37;;;;;;;22.33;13.77;;;;;;;;;;5023212;28;20049;-70
2023/04/19 08:48:03;;;;;;;20.95;13.43;;;;;;;;;;5022429;28;20156;-75
2023/04/19 08:50:29;;;;;;;20.17;12.77;;;;;;;;;;5022912;28;20045;-72
2023/04/19 08:52:58;;;;;;;20.77;13.48;;;;;;;;;;5023062;28;20060;-68
2023/04/19 08:55:23;;;;;;;20.42;12.77;;;;;;;;;;5022977;28;20095;-72
2023/04/19 08:57:49;;;;;;;20.42;13.00;;;;;;;;;;5022743;28;20079;-67
2023/04/19 09:00:15;;;;;;;20.60;12.65;;;;;;;;;;5020856;28;20111;-70
2023/04/19 09:02:48;;;;;;;18.35;12.23;;;;;;;;;;5022198;28;20056;-71
2023/04/19 09:05:15;;;;;;;17.77;12.27;;;;;;;;;;5022368;28;20061;-74
2023/04/19 09:07:41;;;;;;;20.95;12.95;;;;;;;;;;5022267;28;20534;-72
2023/04/19 09:10:12;;;;;;;22.98;13.48;;;;;;;;;;5021563;28;20049;-71
2023/04/19 09:12:39;;;;;;;19.17;13.15;;;;;;;;;;5021496;28;20126;-72
2023/04/19 09:15:07;;;;;;;18.58;11.00;;;;;;;;;;5020705;28;20099;-75
2023/04/19 09:17:37;;;;;;;19.35;11.25;;;;;;;;;;5021888;28;20088;-74
2023/04/19 09:20:04;;;;;;;19.20;11.65;;;;;;;;;;5021073;28;20045;-68
2023/04/19 09:22:30;;;;;;;22.77;10.90;;;;;;;;;;5021302;28;20053;-69
2023/04/19 09:24:58;;;;;;;21.90;12.43;;;;;;;;;;5021893;28;20140;-69
2023/04/19 09:27:25;;;;;;;26.88;12.65;;;;;;;;;;5021934;28;20077;-73
2023/04/19 09:29:58;;;;;;;20.85;12.90;;;;;;;;;;5022158;28;20087;-71
2023/04/19 09:32:24;;;;;;;20.88;12.35;;;;;;;;;;5020327;28;20054;-73
2023/04/19 09:34:54;;;;;;;24.50;12.63;;;;;;;;;;5021853;28;20395;-69
2023/04/19 09:37:20;;;;;;;17.67;11.73;;;;;;;;;;5021011;28;20057;-73
2023/04/19 09:39:46;;;;;;;16.85;11.90;;;;;;;;;;5022178;28;20421;-72
2023/04/19 09:42:11;;;;;;;23.05;11.98;;;;;;;;;;5021048;28;20062;-68
2023/04/19 09:44:37;;;;;;;22.50;11.48;;;;;;;;;;5021051;28;20056;-69
2023/04/19 09:47:23;;;;;;;21.92;12.05;;;;;;;;;;5022428;28;20131;-70
2023/04/19 09:50:03;;;;;;;19.52;12.02;;;;;;;;;;5022112;28;20108;-72
2023/04/19 09:52:29;;;;;;;19.65;12.20;;;;;;;;;;5020797;28;20053;-69
2023/04/19 09:54:56;;;;;;;22.80;13.13;;;;;;;;;;5022603;28;20052;-69
2023/04/19 09:57:21;;;;;;;21.25;11.75;;;;;;;;;;5022722;28;20082;-71
2023/04/19 09:59:47;;;;;;;17.55;11.85;;;;;;;;;;5021490;28;20053;-70
2023/04/19 10:02:13;;;;;;;18.65;11.80;;;;;;;;;;5022714;28;20099;-73
2023/04/19 10:04:39;;;;;;;18.30;11.82;;;;;;;;;;5021349;28;20053;-72
2023/04/19 10:07:05;;;;;;;18.30;11.88;;;;;;;;;;5021655;28;20045;-71
2023/04/19 10:09:30;;;;;;;17.73;11.57;;;;;;;;;;5021458;28;20774;-71
2023/04/19 10:11:57;;;;;;;18.23;11.43;;;;;;;;;;5021280;28;20052;-71
2023/04/19 10:14:25;;;;;;;16.25;10.98;;;;;;;;;;5020242;28;20041;-70
2023/04/19 10:16:50;;;;;;;18.77;10.48;;;;;;;;;;5020882;28;20076;-69
2023/04/19 10:19:18;;;;;;;14.75;10.48;;;;;;;;;;5021610;28;20419;-69
2023/04/19 10:21:46;;;;;;;18.25;10.70;;;;;;;;;;5021125;28;20055;-70
2023/04/19 10:24:17;;;;;;;16.33;10.88;;;;;;;;;;5020707;28;20114;-73
2023/04/19 10:27:11;;;;;;;21.35;10.40;;;;;;;;;;5019772;28;20410;-69
2023/04/19 10:29:52;;;;;;;15.07;10.27;;;;;;;;;;5019758;28;20103;-73
2023/04/19 10:32:17;;;;;;;14.30;10.73;;;;;;;;;;5020816;28;20056;-68
2023/04/19 10:34:45;;;;;;;19.02;10.80;;;;;;;;;;5020564;28;20049;-70
2023/04/19 10:37:10;;;;;;;20.52;11.68;;;;;;;;;;5020376;28;20052;-69
2023/04/19 10:39:43;;;;;;;18.55;11.90;;;;;;;;;;5019681;28;20045;-71
2023/04/19 10:42:09;;;;;;;19.20;11.82;;;;;;;;;;5019567;28;20525;-70
2023/04/19 10:44:34;;;;;;;18.90;11.52;;;;;;;;;;5020731;28;20045;-71
2023/04/19 10:47:00;;;;;;;16.83;12.15;;;;;;;;;;5020673;28;20056;-69
2023/04/19 10:49:27;;;;;;;18.40;12.48;;;;;;;;;;5020308;28;20087;-69
2023/04/19 10:51:56;;;;;;;17.45;12.52;;;;;;;;;;5020689;28;20052;-69
2023/04/19 10:54:30;;;;;;;18.33;11.65;;;;;;;;;;5020856;28;20068;-69
2023/04/19 10:57:06;;;;;;;21.23;12.50;;;;;;;;;;5018601;28;20378;-70
2023/04/19 10:59:43;;;;;;;19.00;12.40;;;;;;;;;;5020421;28;20099;-68
2023/04/19 11:02:31;;;;;;;19.45;12.23;;;;;;;;;;5020279;28;20073;-70
2023/04/19 11:04:59;;;;;;;19.38;11.68;;;;;;;;;;5034041;28;20041;-68
2023/04/19 11:07:25;;;;;;;20.92;13.05;;;;;;;;;;5019390;28;20050;-72
2023/04/19 11:09:52;;;;;;;24.02;13.90;;;;;;;;;;5019750;28;20041;-69
2023/04/19 11:12:18;;;;;;;20.73;13.05;;;;;;;;;;5018828;28;20080;-70
2023/04/19 11:14:51;;;;;;;20.30;13.10;;;;;;;;;;5019965;28;20049;-72
2023/04/19 11:17:17;;;;;;;22.15;13.63;;;;;;;;;;5019973;28;20964;-68
2023/04/19 11:19:55;;;;;;;19.80;12.77;;;;;;;;;;5020426;28;20042;-73
2023/04/19 11:22:34;;;;;;;16.05;11.75;;;;;;;;;;5018089;28;20053;-71
2023/04/19 11:25:09;;;;;;;18.85;11.65;;;;;;;;;;5002601;28;20410;-70
2023/04/19 11:27:36;;;;;;;22.98;12.65;;;;;;;;;;5020582;28;20053;-70
2023/04/19 11:30:03;;;;;;;17.58;12.18;;;;;;;;;;5020969;28;20045;-72
2023/04/19 11:32:28;;;;;;;17.77;11.43;;;;;;;;;;5018497;28;20049;-70
2023/04/19 11:34:55;;;;;;;17.67;12.90;;;;;;;;;;5021451;28;20096;-74
2023/04/19 11:37:20;;;;;;;25.50;14.68;;;;;;;;;;5022534;28;20052;-70
2023/04/19 11:39:46;;;;;;;20.65;13.77;;;;;;;;;;5019844;28;20045;-70
2023/04/19 11:42:21;;;;;;;22.80;14.57;;;;;;;;;;5019474;28;20046;-68
2023/04/19 11:44:51;;;;;;;30.70;16.58;;;;;;;;;;5016089;28;20053;-72
2023/04/19 11:47:17;;;;;;;26.05;16.02;;;;;;;;;;5020106;28;20057;-72
2023/04/19 11:49:43;;;;;;;27.50;17.02;;;;;;;;;;5020735;28;20064;-68
2023/04/19 11:52:08;;;;;;;36.33;17.05;;;;;;;;;;5020010;28;20045;-72
2023/04/19 11:54:34;;;;;;;24.15;14.50;;;;;;;;;;5019130;28;20128;-69
2023/04/19 11:57:04;;;;;;;23.00;14.82;;;;;;;;;;5019575;28;20046;-71
2023/04/19 11:59:31;;;;;;;22.65;13.70;;;;;;;;;;5021206;28;20135;-71
2023/04/19 12:02:04;;;;;;;21.42;13.85;;;;;;;;;;5020712;28;20045;-70
2023/04/19 12:04:29;;;;;;;24.80;14.15;;;;;;;;;;5018927;28;20057;-71
2023/04/19 12:06:58;;;;;;;22.17;15.40;;;;;;;;;;5019420;28;20053;-71
2023/04/19 12:09:23;;;;;;;26.95;15.18;;;;;;;;;;5019709;28;20501;-71
2023/04/19 12:11:48;;;;;;;22.35;14.68;;;;;;;;;;5018409;28;20045;-69
2023/04/19 12:14:15;;;;;;;25.50;15.63;;;;;;;;;;5019840;28;20128;-69
2023/04/19 12:16:43;;;;;;;22.73;11.45;;;;;;;;;;5018402;28;20092;-68
2023/04/19 12:19:16;;;;;;;16.80;11.30;;;;;;;;;;5018806;28;20077;-72
2023/04/19 12:21:42;;;;;;;9.43;6.90;;;;;;;;;;5019938;28;20056;-72
2023/04/19 12:24:08;;;;;;;13.07;7.00;;;;;;;;;;5022436;28;20056;-70
2023/04/19 12:26:34;;;;;;;7.35;4.47;;;;;;;;;;5021196;28;20459;-68
2023/04/19 12:29:01;;;;;;;12.57;6.50;;;;;;;;;;5022726;28;20641;-70
2023/04/19 12:31:27;;;;;;;25.15;12.10;;;;;;;;;;5022345;28;20160;-71
2023/04/19 12:33:53;;;;;;;24.77;13.25;;;;;;;;;;5022696;28;20152;-71
2023/04/19 12:36:19;;;;;;;27.70;16.42;;;;;;;;;;5022149;28;20053;-71
2023/04/19 12:38:44;;;;;;;9.63;6.55;;;;;;;;;;5020424;28;20041;-70
2023/04/19 12:41:10;;;;;;;8.77;5.93;;;;;;;;;;5023011;28;20060;-70
2023/04/19 12:43:35;;;;;;;9.15;6.75;;;;;;;;;;5022882;28;20045;-69
2023/04/19 12:46:01;;;;;;;6.20;5.07;;;;;;;;;;5022673;28;20453;-69
2023/04/19 12:48:27;;;;;;;10.18;6.15;;;;;;;;;;5019237;28;20045;-70
2023/04/19 12:50:52;;;;;;;7.05;5.00;;;;;;;;;;5022725;28;20073;-70
2023/04/19 12:53:18;;;;;;;10.88;5.95;;;;;;;;;;5022965;28;20085;-71
2023/04/19 12:55:48;;;;;;;8.57;6.40;;;;;;;;;;5021166;28;20083;-68
2023/04/19 12:58:20;;;;;;;6.32;4.50;;;;;;;;;;5032587;28;20041;-69
2023/04/19 13:00:45;;;;;;;6.60;4.68;;;;;;;;;;5035344;28;20061;-70
2023/04/19 13:03:11;;;;;;;8.00;4.70;;;;;;;;;;5017763;28;20049;-74
2023/04/19 13:05:37;;;;;;;6.65;4.70;;;;;;;;;;5013143;28;20059;-69
2023/04/19 13:08:03;;;;;;;7.20;5.28;;;;;;;;;;5020819;28;20045;-74
2023/04/19 13:10:28;;;;;;;6.85;4.45;;;;;;;;;;5016668;28;20059;-69
2023/04/19 13:12:55;;;;;;;9.85;6.07;;;;;;;;;;5015663;28;20076;-69
2023/04/19 13:15:20;;;;;;;6.82;5.50;;;;;;;;;;5017769;28;20045;-70
2023/04/19 13:17:45;;;;;;;5.35;4.63;;;;;;;;;;5013754;28;20057;-71
2023/04/19 13:20:11;;;;;;;9.75;5.15;;;;;;;;;;5008122;28;20034;-70
2023/04/19 13:22:36;;;;;;;6.13;5.05;;;;;;;;;;5016781;28;20089;-72
2023/04/19 13:25:02;;;;;;;7.07;4.78;;;;;;;;;;5014638;28;20045;-69
2023/04/19 13:27:28;;;;;;;4.70;4.05;;;;;;;;;;5009661;28;20163;-70
2023/04/19 13:29:54;;;;;;;6.30;4.82;;;;;;;;;;5016166;28;20053;-69
2023/04/19 13:32:20;;;;;;;4.72;3.88;;;;;;;;;;5017657;28;20041;-70
2023/04/19 13:34:46;;;;;;;5.78;4.13;;;;;;;;;;5019711;28;20050;-70
2023/04/19 13:37:11;;;;;;;5.90;4.78;;;;;;;;;;5012172;28;20053;-68
2023/04/19 13:39:36;;;;;;;4.13;3.63;;;;;;;;;;5010090;28;20054;-71
2023/04/19 13:42:02;;;;;;;5.68;4.43;;;;;;;;;;5003196;28;20081;-67
2023/04/19 13:44:28;;;;;;;5.03;4.00;;;;;;;;;;5010581;28;20053;-72
2023/04/19 13:46:53;;;;;;;6.55;4.68;;;;;;;;;;5011686;28;20049;-69
2023/04/19 13:49:19;;;;;;;6.03;4.70;;;;;;;;;;5011728;28;20414;-70
2023/04/19 13:51:45;;;;;;;21.05;5.55;;;;;;;;;;5011872;28;20398;-68
2023/04/19 13:54:10;;;;;;;8.25;5.55;;;;;;;;;;5018460;28;20124;-69
2023/04/19 13:56:36;;;;;;;8.90;5.32;;;;;;;;;;5019211;28;20052;-68
2023/04/19 13:59:01;;;;;;;7.95;5.82;;;;;;;;;;5018368;28;20479;-72
2023/04/19 14:01:26;;;;;;;7.63;5.93;;;;;;;;;;5020173;28;20053;-68
2023/04/19 14:03:52;;;;;;;9.98;6.68;;;;;;;;;;5031325;28;20448;-71
2023/04/19 14:06:17;;;;;;;9.18;6.38;;;;;;;;;;5038339;28;20059;-70
2023/04/19 14:08:43;;;;;;;8.50;6.13;;;;;;;;;;5010767;28;20060;-71
2023/04/19 14:11:08;;;;;;;7.45;5.82;;;;;;;;;;5009229;28;20046;-68
2023/04/19 14:13:34;;;;;;;7.00;5.75;;;;;;;;;;5011337;28;20510;-73
2023/04/19 14:15:59;;;;;;;2.83;2.30;;;;;;;;;;5005244;28;21098;-68
2023/04/19 14:18:25;;;;;;;2.30;2.10;;;;;;;;;;5008833;28;20083;-67
2023/04/19 14:20:50;;;;;;;8.77;2.83;;;;;;;;;;5007103;28;20140;-67